Nan, Thailand

9:40 PM ICT on December 21, 2014 (GMT +0700)
Nan | Change Station
CLOSE
Current Station
Airport
Location: Nan,
Elevation: 659 ft
Nearby Weather Stations

Elev 659 ft 18.77 °N, 100.76 °E | Updated 40 minutes ago

Mostly Cloudy
Mostly Cloudy
68 °F
Feels Like 68 °F
N
0
Wind Variable Wind from North

Today
High -- | Low -- °F
--% Chance of Precip.
Yesterday
High -- | Low -- °F
Precip. -- in
6:44 AM 5:44 PM
Waning Crescent, 0% visible
Pressure 30.01 in
Visibility 6.2 miles
Clouds Mostly Cloudy 2500 ft
Mostly Cloudy 10000 ft
Dew Point 61 °F
Humidity 78%
Rainfall 0.00 in
Snow Depth Not available.
UV 0 out of 12
Pollen Not available.
Air Quality Not available.
Flu Activity Not available.
METAR VTCN 211400Z 00000KT 9999 BKN025 BKN100 20/16 Q1016 A3003 RWY/02 INFO/L

More Conditions Fewer Conditions

Pressure 30.01 in
Visibility 6.2 miles
Clouds Mostly Cloudy 2500 ft
Mostly Cloudy 10000 ft
Dew Point 61 °F
Humidity 78%
Rainfall 0.00 in
Snow Depth Not available.
UV 0 out of 12
Pollen Not available.
Air Quality Not available.
Flu Activity Not available.
METAR VTCN 211400Z 00000KT 9999 BKN025 BKN100 20/16 Q1016 A3003 RWY/02 INFO/L

More Conditions Fewer Conditions

10-Day Weather Forecast

Almanac

Astronomy

Dec. 21, 2014 Rise Set
Actual Time
Civil Twilight
Nautical Twilight
Astronomical Twilight
Moon
Length of Visible Light
Length of Day
Tomorrow will be .
, % of the Moon is Illuminated

Today's Extremes

Country Highs Country Lows

Community

WunderPhotos

Upload Photos

1,779,395 photos uploaded!

WunderBlogs® & News

Nearby

Air Quality

  Air Quality AQ Index Pollutant
Not available.

Snow Depth

Station Depth Elevation

Earthquake Activity

City Distance Mag. Time & Date
Minimum magnitude displayed is 2.5.

Coastal Water Temperatures

Place Temperature

Nearby Weather Stations